Time;durP1;ratioP1;P1;durP2;ratioP2;P2;SDS_P1;SDS_P2;PMS_P1;PMS_P2;Temp;Humidity;BMP_temperature;BMP_pressure;BME280_temperature;BME280_humidity;BME280_pressure;Samples;Min_cycle;Max_cycle;Signal;HPM_P1;HPM_P2
2021/08/31 00:01:21;;;;;;;13.80;9.52;;;;;;;16.61;70.31;102043.63;6176111;28;20230;-52
2021/08/31 00:04:42;;;;;;;11.55;10.43;;;;;;;16.50;70.84;102037.69;6171159;28;20234;-51
2021/08/31 00:08:04;;;;;;;10.10;9.18;;;;;;;16.56;71.01;102047.25;6195173;28;20249;-53
2021/08/31 00:11:24;;;;;;;11.93;10.85;;;;;;;16.63;70.28;102043.63;6203115;28;20237;-54
2021/08/31 00:14:45;;;;;;;11.70;10.70;;;;;;;16.48;70.99;102036.84;6199222;28;20775;-53
2021/08/31 00:18:08;;;;;;;11.85;10.70;;;;;;;16.50;70.79;102040.31;6190929;28;20593;-51
2021/08/31 00:21:29;;;;;;;14.10;11.47;;;;;;;16.44;70.86;102043.00;6180210;28;20318;-49
2021/08/31 00:24:49;;;;;;;9.65;8.70;;;;;;;16.36;70.90;102035.22;6189427;28;20603;-50
2021/08/31 00:28:10;;;;;;;10.47;9.47;;;;;;;16.24;71.75;102043.28;6186609;28;20320;-52
2021/08/31 00:31:31;;;;;;;9.83;8.93;;;;;;;16.18;71.54;102043.38;6173263;28;20226;-52
2021/08/31 00:34:53;;;;;;;9.43;8.63;;;;;;;16.10;71.88;102043.47;6199292;28;20229;-52
2021/08/31 00:38:14;;;;;;;10.33;9.43;;;;;;;16.01;71.71;102044.44;6192416;28;20238;-51
2021/08/31 00:41:36;;;;;;;11.27;10.13;;;;;;;16.09;71.42;102041.72;6174449;28;20245;-48
2021/08/31 00:44:57;;;;;;;9.40;8.47;;;;;;;15.87;71.98;102052.47;6176465;28;20237;-53
2021/08/31 00:48:19;;;;;;;10.00;9.10;;;;;;;16.11;71.31;102047.81;6190525;28;20233;-54
2021/08/31 00:51:42;;;;;;;9.43;8.53;;;;;;;15.94;71.42;102054.16;6178118;28;20233;-49
2021/08/31 00:55:03;;;;;;;8.67;7.87;;;;;;;15.91;71.85;102048.06;6197406;28;20237;-51
2021/08/31 00:58:24;;;;;;;10.23;9.33;;;;;;;16.04;70.92;102046.19;6172657;28;20236;-50
2021/08/31 01:01:45;;;;;;;7.93;7.23;;;;;;;15.84;72.01;102055.16;6194575;28;20233;-52
2021/08/31 01:05:07;;;;;;;8.97;8.07;;;;;;;15.97;71.25;102060.25;6191163;28;20249;-51
2021/08/31 01:08:30;;;;;;;10.17;9.23;;;;;;;15.89;71.64;102058.59;6177817;28;20308;-51
2021/08/31 01:11:53;;;;;;;9.77;7.77;;;;;;;15.82;71.72;102056.03;6183925;28;20233;-51
2021/08/31 01:15:14;;;;;;;9.57;8.77;;;;;;;15.95;71.20;102057.66;6202342;28;20225;-49
2021/08/31 01:18:35;;;;;;;9.00;8.10;;;;;;;16.02;70.87;102063.72;6205354;28;20233;-53
2021/08/31 01:21:59;;;;;;;12.20;11.00;;;;;;;15.88;71.34;102064.75;6196334;28;20240;-50
2021/08/31 01:25:21;;;;;;;9.47;8.47;;;;;;;15.86;71.29;102061.25;6198987;28;20337;-49
2021/08/31 01:28:42;;;;;;;9.90;8.93;;;;;;;15.74;71.83;102064.00;6171436;28;20233;-52
2021/08/31 01:32:05;;;;;;;8.57;7.77;;;;;;;15.90;71.28;102059.47;6186288;28;20237;-52
2021/08/31 01:35:26;;;;;;;10.00;9.10;;;;;;;15.87;71.52;102063.00;6197369;28;20237;-52
2021/08/31 01:38:48;;;;;;;9.90;8.97;;;;;;;15.65;72.22;102061.47;6180669;28;20226;-52
2021/08/31 01:42:11;;;;;;;12.23;11.10;;;;;;;15.84;71.58;102060.41;6180603;28;20245;-52
2021/08/31 01:45:42;;;;;;;10.27;9.27;;;;;;;15.72;71.75;102055.25;6180508;28;20260;-50
2021/08/31 01:49:03;;;;;;;10.83;9.80;;;;;;;15.89;71.12;102053.34;6183652;28;20309;-53
2021/08/31 01:52:25;;;;;;;12.67;10.10;;;;;;;15.67;71.99;102060.56;6179023;28;20636;-48
2021/08/31 01:55:46;;;;;;;11.97;10.70;;;;;;;15.54;72.29;102051.06;6208528;28;20233;-51
2021/08/31 01:59:08;;;;;;;12.87;9.63;;;;;;;15.61;71.92;102054.50;6207211;28;20228;-49
2021/08/31 02:02:29;;;;;;;10.27;9.20;;;;;;;15.61;72.02;102065.00;6208040;28;20233;-53
2021/08/31 02:05:50;;;;;;;9.63;8.83;;;;;;;15.58;71.98;102057.16;6207771;28;20595;-50
2021/08/31 02:09:11;;;;;;;8.77;7.87;;;;;;;15.47;72.40;102050.28;6209278;28;20244;-53
2021/08/31 02:12:32;;;;;;;10.50;9.30;;;;;;;15.55;72.02;102050.19;6188603;28;20230;-50
2021/08/31 02:15:54;;;;;;;10.30;9.23;;;;;;;15.29;72.94;102053.91;6185601;28;20230;-48
2021/08/31 02:19:15;;;;;;;11.33;10.23;;;;;;;15.38;72.56;102058.22;6206647;28;20226;-47
2021/08/31 02:22:36;;;;;;;11.13;9.97;;;;;;;15.48;72.40;102057.25;6184622;28;20639;-51
2021/08/31 02:25:57;;;;;;;10.60;9.60;;;;;;;15.44;72.29;102054.69;6203837;28;20238;-50
2021/08/31 02:29:19;;;;;;;11.27;10.20;;;;;;;15.16;73.12;102053.16;6173071;28;20770;-50
2021/08/31 02:32:42;;;;;;;9.77;8.93;;;;;;;15.01;74.28;102055.06;6173402;28;20238;-51
2021/08/31 02:36:03;;;;;;;11.53;10.43;;;;;;;15.08;73.71;102049.75;6192294;28;20228;-48
2021/08/31 02:39:25;;;;;;;11.47;10.33;;;;;;;15.08;73.81;102048.84;6172798;28;20691;-49
2021/08/31 02:42:46;;;;;;;13.30;10.20;;;;;;;15.29;73.03;102061.78;6184946;28;20237;-54
2021/08/31 02:46:06;;;;;;;11.10;10.00;;;;;;;15.34;72.69;102059.16;6181272;28;20225;-49
2021/08/31 02:49:29;;;;;;;11.10;10.03;;;;;;;15.13;72.90;102061.06;6172067;28;20629;-53
2021/08/31 02:52:51;;;;;;;9.83;9.03;;;;;;;15.08;73.44;102060.25;6170501;28;20233;-50
2021/08/31 02:56:12;;;;;;;11.23;10.23;;;;;;;15.24;72.71;102055.72;6199207;28;20237;-50
2021/08/31 02:59:33;;;;;;;11.60;10.50;;;;;;;15.34;72.32;102057.38;6183092;28;20232;-50
2021/08/31 03:02:54;;;;;;;12.23;10.93;;;;;;;15.28;72.47;102056.56;6198704;28;20563;-54
2021/08/31 03:06:16;;;;;;;11.23;10.13;;;;;;;15.07;73.21;102065.50;6185580;28;21405;-48
2021/08/31 03:09:37;;;;;;;12.47;10.13;;;;;;;15.10;72.89;102063.72;6180019;28;20233;-53
2021/08/31 03:12:58;;;;;;;14.27;10.23;;;;;;;15.06;72.79;102061.13;6190400;28;20316;-50
2021/08/31 03:16:19;;;;;;;12.20;11.10;;;;;;;15.15;72.76;102059.28;6185819;28;20254;-51
2021/08/31 03:19:40;;;;;;;11.90;10.70;;;;;;;15.04;72.72;102058.50;6203286;28;20233;-53
2021/08/31 03:23:03;;;;;;;11.23;10.23;;;;;;;15.11;72.49;102056.72;6189948;28;20265;-54
2021/08/31 03:26:23;;;;;;;10.20;9.30;;;;;;;15.02;72.72;102062.03;6197494;28;20518;-55
2021/08/31 03:29:45;;;;;;;11.23;10.13;;;;;;;15.03;72.58;102054.16;6199875;28;20225;-50
2021/08/31 03:33:06;;;;;;;14.07;12.70;;;;;;;15.00;72.74;102054.16;6193737;28;20654;-50
2021/08/31 03:36:27;;;;;;;11.20;10.03;;;;;;;15.06;72.50;102053.25;6182463;28;21027;-54
2021/08/31 03:39:49;;;;;;;13.23;10.27;;;;;;;15.00;72.53;102058.53;6178980;28;20237;-50
2021/08/31 03:43:10;;;;;;;10.63;9.73;;;;;;;14.85;73.08;102052.53;6172713;28;20238;-53
2021/08/31 03:46:31;;;;;;;11.53;10.50;;;;;;;14.84;72.99;102049.94;6187669;28;20237;-52
2021/08/31 03:49:52;;;;;;;11.47;9.97;;;;;;;14.83;73.02;102054.31;6196451;28;20623;-54
2021/08/31 03:53:13;;;;;;;12.23;11.13;;;;;;;14.66;73.51;102056.19;6186818;28;20234;-52
2021/08/31 03:56:35;;;;;;;11.97;10.77;;;;;;;14.73;73.23;102058.75;6175769;28;20234;-52
2021/08/31 03:59:56;;;;;;;13.90;11.73;;;;;;;14.74;73.04;102063.09;6188388;28;20302;-52
2021/08/31 04:03:17;;;;;;;11.70;10.53;;;;;;;14.69;73.53;102069.25;6204952;28;20233;-50
2021/08/31 04:06:38;;;;;;;12.27;11.17;;;;;;;14.65;73.64;102070.16;6202612;28;20249;-54
2021/08/31 04:09:59;;;;;;;12.77;11.47;;;;;;;14.75;72.99;102066.56;6199682;28;20229;-51
2021/08/31 04:13:22;;;;;;;12.33;11.13;;;;;;;14.70;73.14;102081.50;6197963;28;20607;-51
2021/08/31 04:16:43;;;;;;;11.40;10.30;;;;;;;14.66;73.40;102074.53;6179208;28;20249;-51
2021/08/31 04:20:05;;;;;;;12.80;11.50;;;;;;;14.72;73.02;102083.22;6179912;28;20229;-53
2021/08/31 04:23:26;;;;;;;12.00;10.77;;;;;;;14.79;72.83;102091.03;6205125;28;20233;-52
2021/08/31 04:26:47;;;;;;;13.67;12.37;;;;;;;14.63;73.23;102085.88;6177536;28;20234;-53
2021/08/31 04:30:10;;;;;;;12.60;11.30;;;;;;;14.64;73.25;102089.41;6201221;28;20225;-50
2021/08/31 04:33:31;;;;;;;12.80;11.63;;;;;;;14.59;73.43;102088.53;6201185;28;20272;-51
2021/08/31 04:36:52;;;;;;;12.47;11.17;;;;;;;14.77;72.87;102083.16;6203874;28;20275;-50
2021/08/31 04:40:13;;;;;;;12.23;11.00;;;;;;;14.64;73.22;102090.25;6187455;28;20221;-51
2021/08/31 04:43:34;;;;;;;12.10;10.93;;;;;;;14.85;72.39;102093.63;6200705;28;20529;-54
2021/08/31 04:46:57;;;;;;;12.17;10.97;;;;;;;14.64;73.04;102092.03;6203468;28;20501;-52
2021/08/31 04:50:17;;;;;;;12.03;10.50;;;;;;;14.74;73.00;102097.19;6187727;28;20325;-49
2021/08/31 04:53:39;;;;;;;11.70;10.60;;;;;;;14.85;72.46;102096.22;6200966;28;20348;-49
2021/08/31 04:57:00;;;;;;;13.73;12.10;;;;;;;14.86;72.56;102096.22;6196772;28;20313;-52
2021/08/31 05:00:21;;;;;;;12.67;11.53;;;;;;;14.73;72.85;102100.69;6189197;28;20264;-53
2021/08/31 05:03:43;;;;;;;13.63;12.37;;;;;;;14.85;72.66;102093.63;6192595;28;20847;-51
2021/08/31 05:07:06;;;;;;;10.80;9.80;;;;;;;14.91;72.09;102102.31;6185098;28;20233;-53
2021/08/31 05:10:28;;;;;;;12.20;10.90;;;;;;;14.96;71.79;102097.91;6175746;28;20647;-52
2021/08/31 05:13:49;;;;;;;11.63;10.53;;;;;;;15.05;71.56;102096.97;6187440;28;20607;-51
2021/08/31 05:17:10;;;;;;;12.50;11.20;;;;;;;15.17;71.32;102098.63;6201222;28;20617;-51
2021/08/31 05:20:32;;;;;;;11.67;10.57;;;;;;;15.19;71.41;102103.88;6185299;28;20221;-55
2021/08/31 05:23:53;;;;;;;11.27;10.27;;;;;;;15.08;71.79;102107.47;6198834;28;20253;-49
2021/08/31 05:27:14;;;;;;;11.37;10.37;;;;;;;15.15;71.18;102103.88;6198440;28;20230;-51
2021/08/31 05:30:34;;;;;;;12.63;10.97;;;;;;;15.36;70.91;102115.13;6203910;28;20320;-50
2021/08/31 05:33:55;;;;;;;13.57;11.90;;;;;;;15.27;71.30;102109.94;6195133;28;20229;-54
2021/08/31 05:37:17;;;;;;;11.33;9.90;;;;;;;15.33;71.44;102117.75;6203007;28;20228;-52
2021/08/31 05:40:38;;;;;;;11.53;10.43;;;;;;;15.25;71.55;102120.44;6209928;28;20311;-53
2021/08/31 05:43:59;;;;;;;14.33;10.70;;;;;;;15.33;71.37;102125.63;6203538;28;20241;-54
2021/08/31 05:47:20;;;;;;;11.20;10.07;;;;;;;15.57;70.84;102127.19;6194520;28;20316;-53
2021/08/31 05:50:41;;;;;;;13.73;10.60;;;;;;;15.56;70.89;102122.81;6205831;28;20341;-53
2021/08/31 05:54:03;;;;;;;12.27;11.07;;;;;;;15.58;70.74;102123.66;6194458;28;20268;-53
2021/08/31 05:57:24;;;;;;;11.37;10.20;;;;;;;15.61;70.80;102122.78;6180654;28;20230;-53
2021/08/31 06:00:45;;;;;;;11.33;10.23;;;;;;;15.75;70.43;102131.41;6175730;28;20238;-52
2021/08/31 06:04:06;;;;;;;11.37;9.67;;;;;;;15.88;70.03;102127.78;6183758;28;20233;-52
2021/08/31 06:07:27;;;;;;;11.47;10.27;;;;;;;15.83;70.12;102129.59;6196331;28;20556;-51
2021/08/31 06:10:50;;;;;;;11.50;10.33;;;;;;;16.03;69.57;102134.66;6196545;28;20667;-55
2021/08/31 06:14:11;;;;;;;14.10;10.27;;;;;;;16.26;69.43;102142.25;6200284;28;20233;-53
2021/08/31 06:17:33;;;;;;;10.93;9.87;;;;;;;16.42;68.65;102135.06;6192212;28;20229;-54
2021/08/31 06:20:54;;;;;;;11.57;10.20;;;;;;;16.42;69.14;102139.44;6186366;28;20256;-52
2021/08/31 06:24:15;;;;;;;13.57;12.27;;;;;;;16.41;69.23;102138.56;6184104;28;20249;-48
2021/08/31 06:27:37;;;;;;;10.77;9.03;;;;;;;16.42;69.30;102147.31;6181527;28;20233;-54
2021/08/31 06:30:58;;;;;;;11.03;9.90;;;;;;;16.58;68.94;102143.63;6200100;28;20237;-49
2021/08/31 06:34:19;;;;;;;11.23;10.17;;;;;;;16.74;68.78;102146.91;6187792;28;20599;-54
2021/08/31 06:37:40;;;;;;;11.43;10.37;;;;;;;16.58;69.50;102146.25;6197273;28;20588;-50
2021/08/31 06:41:01;;;;;;;10.23;9.20;;;;;;;16.62;69.68;102153.22;6180647;28;20237;-52
2021/08/31 06:44:23;;;;;;;10.60;9.03;;;;;;;16.85;69.32;102146.81;6195532;28;20742;-53
2021/08/31 06:47:44;;;;;;;12.60;9.50;;;;;;;17.03;68.82;102146.53;6180957;28;22053;-54
2021/08/31 06:51:05;;;;;;;10.97;8.90;;;;;;;17.16;68.07;102144.59;6178356;28;20238;-48
2021/08/31 06:54:26;;;;;;;9.77;8.87;;;;;;;17.04;69.27;102150.03;6183470;28;20658;-50
2021/08/31 06:57:47;;;;;;;10.33;9.33;;;;;;;17.36;68.32;102146.91;6196036;28;20241;-51
2021/08/31 07:01:09;;;;;;;9.70;8.37;;;;;;;17.16;69.19;102138.44;6190798;28;20316;-46
2021/08/31 07:04:30;;;;;;;11.40;9.95;;;;;;;17.20;69.31;102145.41;6202135;28;20242;-53
2021/08/31 07:07:52;;;;;;;10.40;8.80;;;;;;;17.47;68.46;102144.09;6184061;28;20230;-53
2021/08/31 07:11:13;;;;;;;10.47;8.07;;;;;;;17.67;68.01;102146.38;6187950;28;20233;-51
2021/08/31 07:14:34;;;;;;;7.37;6.57;;;;;;;17.92;68.88;102148.63;6180186;28;20776;-52
2021/08/31 07:17:56;;;;;;;8.13;7.35;;;;;;;18.34;66.52;102153.94;6178028;28;20234;-54
2021/08/31 07:21:17;;;;;;;9.27;7.05;;;;;;;18.64;66.02;102145.38;6178976;28;20515;-54
2021/08/31 07:24:38;;;;;;;10.65;7.60;;;;;;;18.66;66.00;102146.22;6174178;28;20234;-51
2021/08/31 07:27:59;;;;;;;8.10;6.97;;;;;;;18.87;65.33;102147.53;6179573;28;20245;-49
2021/08/31 07:31:20;;;;;;;7.97;7.20;;;;;;;18.94;65.22;102144.75;6171197;28;20237;-46
2021/08/31 07:34:43;;;;;;;7.87;7.13;;;;;;;18.93;64.80;102148.31;6198975;28;20225;-53
2021/08/31 07:38:05;;;;;;;6.83;6.13;;;;;;;19.28;64.13;102139.56;6188390;28;20237;-50
2021/08/31 07:41:27;;;;;;;8.35;6.45;;;;;;;19.39;63.86;102148.09;6206372;28;21338;-50
2021/08/31 07:44:48;;;;;;;7.35;6.43;;;;;;;19.22;64.33;102150.28;6188411;28;20316;-51
2021/08/31 07:48:09;;;;;;;8.48;7.55;;;;;;;19.33;64.33;102153.53;6199931;28;20237;-49
2021/08/31 07:51:31;;;;;;;9.13;7.35;;;;;;;19.31;64.15;102155.34;6203154;28;20501;-53
2021/08/31 07:54:51;;;;;;;11.43;7.00;;;;;;;19.44;63.72;102162.06;6197964;28;20504;-51
2021/08/31 07:58:12;;;;;;;9.25;8.32;;;;;;;19.62;63.04;102160.72;6201385;28;20331;-55
2021/08/31 08:01:33;;;;;;;11.68;6.88;;;;;;;19.47;62.58;102175.16;6201057;28;20312;-54
2021/08/31 08:04:59;;;;;;;7.57;6.70;;;;;;;19.79;63.07;102173.53;6204351;28;20534;-55
2021/08/31 08:08:22;;;;;;;9.20;5.78;;;;;;;19.75;61.95;102177.13;6207024;28;22151;-52
2021/08/31 08:11:42;;;;;;;7.88;6.30;;;;;;;19.99;61.82;102180.94;6197955;28;20221;-52
2021/08/31 08:15:05;;;;;;;7.18;6.53;;;;;;;20.19;61.23;102180.38;6203138;28;20232;-48
2021/08/31 08:18:26;;;;;;;8.35;5.85;;;;;;;20.36;60.27;102176.41;6203810;28;20897;-50
2021/08/31 08:21:47;;;;;;;6.45;4.72;;;;;;;20.46;59.41;102180.50;6199342;28;20320;-51
2021/08/31 08:25:10;;;;;;;7.40;6.07;;;;;;;20.52;59.38;102185.63;6176192;28;20312;-52
2021/08/31 08:28:31;;;;;;;7.25;5.65;;;;;;;20.73;58.66;102191.22;6165874;28;20226;-51
2021/08/31 08:31:52;;;;;;;5.53;4.93;;;;;;;20.77;59.14;102190.22;6186479;28;20229;-52
2021/08/31 08:35:13;;;;;;;6.40;5.05;;;;;;;20.36;57.79;102190.47;6176795;28;20237;-51
2021/08/31 08:38:35;;;;;;;7.40;5.50;;;;;;;20.51;58.43;102198.88;6178359;28;20496;-52
2021/08/31 08:41:58;;;;;;;6.18;4.47;;;;;;;20.80;56.66;102196.28;6161907;28;20320;-54
2021/08/31 08:45:19;;;;;;;6.07;5.28;;;;;;;20.89;55.37;102195.13;6182340;28;21639;-52
2021/08/31 08:48:40;;;;;;;6.10;4.88;;;;;;;21.18;55.77;102196.00;6193912;28;20229;-55
2021/08/31 08:52:02;;;;;;;8.25;4.35;;;;;;;21.15;54.79;102188.16;6205203;28;20240;-54
2021/08/31 08:55:25;;;;;;;5.32;4.82;;;;;;;21.08;54.27;102191.94;6200664;28;20788;-52
2021/08/31 08:58:47;;;;;;;7.35;5.03;;;;;;;21.50;54.57;102189.72;6182719;28;20241;-54
2021/08/31 09:02:10;;;;;;;5.93;5.35;;;;;;;21.50;53.82;102175.56;6199107;28;20225;-54
2021/08/31 09:05:32;;;;;;;4.68;4.25;;;;;;;21.48;53.11;102177.41;6171816;28;20686;-53
2021/08/31 09:08:58;;;;;;;5.57;4.38;;;;;;;21.60;53.44;102182.31;6194816;28;20232;-53
2021/08/31 09:12:33;;;;;;;7.70;4.57;;;;;;;21.53;51.87;102176.34;6201815;28;20233;-55
2021/08/31 09:15:55;;;;;;;7.93;4.93;;;;;;;21.29;52.26;102187.75;6199164;28;20225;-50
2021/08/31 09:19:17;;;;;;;6.28;4.15;;;;;;;21.31;52.94;102186.75;6209383;28;20593;-49
2021/08/31 09:22:38;;;;;;;4.70;4.15;;;;;;;21.72;53.32;102187.19;6202960;28;20229;-51
2021/08/31 09:26:04;;;;;;;5.88;5.13;;;;;;;22.02;52.71;102195.88;6189347;28;20242;-53
2021/08/31 09:29:25;;;;;;;9.63;4.45;;;;;;;22.03;51.13;102194.09;6206479;28;20257;-52
2021/08/31 09:33:14;;;;;;;5.35;4.85;;;;;;;22.05;51.19;102207.31;6207479;28;20245;-52
2021/08/31 09:36:36;;;;;;;6.00;4.75;;;;;;;21.89;51.07;102193.69;6204621;28;20248;-54
2021/08/31 09:40:13;;;;;;;4.80;3.97;;;;;;;21.82;50.93;102196.56;6210440;28;20220;-50
2021/08/31 09:43:36;;;;;;;8.90;4.53;;;;;;;22.10;51.94;102200.91;6196111;28;20241;-48
2021/08/31 09:47:00;;;;;;;4.68;4.28;;;;;;;22.44;49.25;102207.66;6189561;28;20604;-54
2021/08/31 09:50:38;;;;;;;5.13;4.65;;;;;;;22.82;48.78;102200.06;6181550;28;20239;-53
2021/08/31 09:54:24;;;;;;;4.55;4.15;;;;;;;22.43;48.34;102205.94;6204911;28;20229;-52
2021/08/31 09:57:45;;;;;;;5.38;4.88;;;;;;;22.71;46.56;102205.75;6206751;28;20226;-49
2021/08/31 10:01:06;;;;;;;4.22;3.90;;;;;;;22.99;46.81;102205.56;6208199;28;20248;-52
2021/08/31 10:04:27;;;;;;;4.38;4.07;;;;;;;23.18;45.20;102204.84;6193710;28;20249;-52
2021/08/31 10:07:49;;;;;;;4.40;4.00;;;;;;;23.90;44.78;102198.34;6204754;28;20229;-53
2021/08/31 10:11:11;;;;;;;4.13;3.72;;;;;;;23.03;44.90;102205.47;6210508;28;20564;-49
2021/08/31 10:14:32;;;;;;;4.82;4.32;;;;;;;23.55;44.94;102195.38;6205051;28;20515;-51
2021/08/31 10:17:53;;;;;;;6.28;4.70;;;;;;;23.74;43.68;102198.13;6214268;28;20224;-52
2021/08/31 10:21:15;;;;;;;4.90;4.55;;;;;;;23.95;42.64;102191.91;6210579;28;20224;-53
2021/08/31 10:24:36;;;;;;;5.07;4.68;;;;;;;24.59;43.17;102197.09;6204941;28;20244;-51
2021/08/31 10:28:00;;;;;;;4.82;4.10;;;;;;;24.38;43.48;102194.44;6204684;28;20225;-51
2021/08/31 10:31:29;;;;;;;5.20;4.78;;;;;;;24.44;43.02;102196.81;6185242;28;20228;-52
2021/08/31 10:34:49;;;;;;;5.22;4.60;;;;;;;24.11;42.59;102199.22;6198306;28;20685;-54
2021/08/31 10:38:12;;;;;;;5.00;4.50;;;;;;;23.40;44.04;102207.53;6197402;28;20229;-52
2021/08/31 10:41:49;;;;;;;4.95;4.45;;;;;;;24.17;42.75;102202.47;6173758;28;20232;-50
2021/08/31 10:45:32;;;;;;;4.72;4.32;;;;;;;25.28;41.32;102202.69;6209111;28;20229;-53
2021/08/31 10:49:00;;;;;;;4.38;4.07;;;;;;;25.89;40.04;102197.84;6178029;28;20324;-54
2021/08/31 10:52:33;;;;;;;4.65;4.25;;;;;;;25.32;40.60;102201.59;6176294;28;20312;-54
2021/08/31 10:55:54;;;;;;;3.80;3.50;;;;;;;25.65;39.96;102203.50;6207877;28;20249;-52
2021/08/31 10:59:34;;;;;;;6.10;4.63;;;;;;;25.33;40.08;102200.63;6199525;28;20225;-51
2021/08/31 11:02:58;;;;;;;6.80;6.20;;;;;;;24.86;40.26;102214.44;6201444;28;20224;-53
2021/08/31 11:06:34;;;;;;;6.97;4.95;;;;;;;24.23;41.69;102203.13;6195468;28;20225;-54
2021/08/31 11:09:55;;;;;;;4.45;4.05;;;;;;;25.18;40.37;102206.69;6202189;28;20601;-53
2021/08/31 11:13:21;;;;;;;4.57;4.18;;;;;;;25.88;38.39;102206.78;6202203;28;20237;-53
2021/08/31 11:16:46;;;;;;;5.10;4.60;;;;;;;26.50;37.92;102204.41;6207486;28;20590;-55
2021/08/31 11:20:18;;;;;;;4.47;4.07;;;;;;;26.94;37.18;102211.81;6199504;28;20626;-55
2021/08/31 11:23:39;;;;;;;5.88;4.47;;;;;;;26.95;36.83;102210.00;6198916;28;20228;-52
2021/08/31 11:27:03;;;;;;;6.25;3.75;;;;;;;25.40;37.37;102203.88;6194320;28;20758;-54
2021/08/31 11:30:25;;;;;;;4.20;3.80;;;;;;;24.35;39.87;102213.25;6189868;28;20225;-55
2021/08/31 11:33:47;;;;;;;4.78;3.85;;;;;;;27.75;34.39;102208.09;6167971;28;20236;-54
2021/08/31 11:37:10;;;;;;;5.25;4.20;;;;;;;29.92;29.90;102203.09;6195663;28;20622;-52
2021/08/31 11:40:31;;;;;;;4.20;3.80;;;;;;;31.06;27.99;102212.94;6202846;28;20327;-54
2021/08/31 11:43:54;;;;;;;5.00;4.00;;;;;;;27.79;34.02;102207.78;6182211;28;20252;-53
2021/08/31 11:47:15;;;;;;;6.22;4.88;;;;;;;25.74;37.71;102215.50;6183894;28;20520;-49
2021/08/31 11:50:37;;;;;;;6.47;4.43;;;;;;;25.56;38.63;102211.97;6162911;28;20296;-50
2021/08/31 11:54:05;;;;;;;4.75;4.30;;;;;;;30.71;30.89;102219.94;6177349;28;20233;-55
2021/08/31 11:57:30;;;;;;;4.93;3.97;;;;;;;34.68;23.74;102214.88;6186815;28;20232;-55
2021/08/31 12:00:51;;;;;;;5.43;4.30;;;;;;;35.95;21.32;102208.59;6200996;28;20709;-55
2021/08/31 12:04:16;;;;;;;4.32;4.00;;;;;;;38.70;19.49;102206.97;6202929;28;20309;-52
2021/08/31 12:07:39;;;;;;;5.30;4.80;;;;;;;37.37;20.14;102211.81;6211824;28;20307;-52
2021/08/31 12:11:03;;;;;;;4.55;4.15;;;;;;;34.03;23.42;102202.59;6204235;28;20320;-51
2021/08/31 12:14:24;;;;;;;5.82;4.43;;;;;;;31.96;26.54;102203.34;6186880;28;20226;-49
2021/08/31 12:17:46;;;;;;;4.32;3.80;;;;;;;30.15;28.39;102214.94;6186139;28;20225;-53
2021/08/31 12:21:22;;;;;;;5.00;4.57;;;;;;;27.87;32.02;102210.00;6183089;28;20245;-54
2021/08/31 12:24:45;;;;;;;4.45;4.05;;;;;;;29.73;29.64;102216.94;6163122;28;20750;-51
2021/08/31 12:28:08;;;;;;;4.85;4.45;;;;;;;34.95;22.96;102215.19;6180712;28;20233;-53
2021/08/31 12:31:29;;;;;;;6.15;4.53;;;;;;;35.52;22.02;102215.34;6177510;28;20492;-55
2021/08/31 12:34:50;;;;;;;4.90;4.50;;;;;;;35.55;21.92;102213.22;6191933;28;20234;-54
2021/08/31 12:38:14;;;;;;;4.55;4.15;;;;;;;33.38;23.80;102208.13;6169696;28;20544;-50
2021/08/31 12:41:40;;;;;;;4.43;4.05;;;;;;;32.67;26.53;102219.34;6175103;28;20258;-53
2021/08/31 12:45:03;;;;;;;4.50;4.10;;;;;;;36.29;21.20;102216.19;6179905;28;20237;-55
2021/08/31 12:48:40;;;;;;;3.88;3.50;;;;;;;37.02;20.25;102208.91;6198062;28;20618;-54
2021/08/31 12:52:14;;;;;;;6.18;4.03;;;;;;;30.73;26.57;102222.47;6207049;28;20714;-51
2021/08/31 12:55:37;;;;;;;4.20;3.90;;;;;;;31.93;26.37;102219.78;6192330;28;20272;-52
2021/08/31 12:59:03;;;;;;;5.45;4.95;;;;;;;35.84;21.62;102221.31;6196673;28;20217;-52
2021/08/31 13:02:36;;;;;;;4.50;4.10;;;;;;;36.83;20.36;102214.50;6199631;28;20237;-49
2021/08/31 13:05:57;;;;;;;5.63;4.07;;;;;;;37.53;20.47;102211.06;6197385;28;20596;-52
2021/08/31 13:09:20;;;;;;;4.57;4.18;;;;;;;37.67;19.32;102202.41;6196513;28;20226;-53
2021/08/31 13:12:45;;;;;;;5.05;4.50;;;;;;;36.18;21.75;102203.72;6201865;28;20236;-56
2021/08/31 13:16:06;;;;;;;6.00;5.50;;;;;;;31.19;26.45;102214.63;6186744;28;20501;-55
2021/08/31 13:19:28;;;;;;;4.88;4.47;;;;;;;28.59;30.52;102213.63;6169034;28;20237;-52
2021/08/31 13:22:50;;;;;;;5.00;4.40;;;;;;;29.29;30.45;102206.50;6171889;28;20676;-54
2021/08/31 13:26:13;;;;;;;5.40;4.35;;;;;;;34.05;24.73;102200.63;6164686;28;20232;-52
2021/08/31 13:29:33;;;;;;;4.57;4.18;;;;;;;35.45;21.97;102199.69;6171236;28;20560;-52
2021/08/31 13:32:55;;;;;;;4.68;4.28;;;;;;;35.94;20.38;102191.47;6195128;28;20272;-54
2021/08/31 13:36:17;;;;;;;3.97;3.60;;;;;;;37.28;18.85;102188.31;6195982;28;20262;-54
2021/08/31 13:39:38;;;;;;;3.90;3.53;;;;;;;36.28;19.19;102193.66;6195779;28;20532;-55
2021/08/31 13:42:59;;;;;;;4.03;3.50;;;;;;;37.15;19.33;102181.41;6199483;28;20229;-52
2021/08/31 13:46:22;;;;;;;4.78;4.28;;;;;;;35.94;20.06;102182.50;6171076;28;20647;-55
2021/08/31 13:49:43;;;;;;;4.30;3.90;;;;;;;36.59;19.93;102186.06;6172420;28;20237;-53
2021/08/31 13:53:05;;;;;;;3.85;3.38;;;;;;;32.42;24.57;102182.72;6179606;28;20663;-50
2021/08/31 13:56:26;;;;;;;4.68;4.22;;;;;;;30.59;26.81;102181.38;6172157;28;20830;-49
2021/08/31 13:59:47;;;;;;;7.57;7.03;;;;;;;33.79;22.76;102174.03;6185399;28;20229;-56
2021/08/31 14:03:08;;;;;;;16.92;15.60;;;;;;;35.54;20.24;102161.88;6198215;28;20249;-55
2021/08/31 14:06:29;;;;;;;614.45;551.10;;;;;;;35.97;21.88;102166.78;6182980;28;20286;-48
2021/08/31 14:09:52;;;;;;;331.20;304.08;;;;;;;33.41;23.19;102161.13;6196508;28;20225;-51
2021/08/31 14:13:13;;;;;;;207.88;192.60;;;;;;;30.27;28.41;102166.69;6191887;28;20219;-48
2021/08/31 14:16:34;;;;;;;1387.22;999.90;;;;;;;32.65;27.27;102162.00;6174454;28;20329;-49
2021/08/31 14:19:55;;;;;;;370.13;344.67;;;;;;;31.86;26.00;102164.66;6197168;28;20237;-51
2021/08/31 14:23:16;;;;;;;115.60;107.70;;;;;;;34.19;22.72;102159.75;6179036;28;20520;-51
2021/08/31 14:26:38;;;;;;;455.48;423.23;;;;;;;33.24;23.42;102162.56;6208131;28;20506;-49
2021/08/31 14:29:59;;;;;;;577.75;537.30;;;;;;;33.82;24.85;102167.50;6202806;28;20238;-48
2021/08/31 14:33:20;;;;;;;390.63;359.35;;;;;;;32.84;26.38;102174.84;6195000;28;20508;-56
2021/08/31 14:36:41;;;;;;;396.63;371.17;;;;;;;33.22;25.02;102167.22;6174900;28;20238;-50
2021/08/31 14:40:05;;;;;;;69.97;63.92;;;;;;;32.02;25.60;102158.94;6198088;28;20513;-53
2021/08/31 14:43:28;;;;;;;198.20;188.05;;;;;;;31.61;28.39;102164.88;6194675;28;20240;-47
2021/08/31 14:46:48;;;;;;;54.75;50.90;;;;;;;30.43;27.43;102170.84;6188098;28;20237;-49
2021/08/31 14:50:11;;;;;;;20.20;18.63;;;;;;;30.51;27.85;102174.81;6187297;28;20230;-53
2021/08/31 14:53:32;;;;;;;6.15;5.53;;;;;;;29.14;29.56;102177.06;6195047;28;20233;-52
2021/08/31 14:56:53;;;;;;;4.55;4.25;;;;;;;28.73;29.88;102171.69;6203848;28;20413;-54
2021/08/31 15:00:17;;;;;;;4.93;4.50;;;;;;;28.31;29.82;102179.66;6188165;28;20659;-49
2021/08/31 15:03:37;;;;;;;13.85;12.60;;;;;;;28.78;30.19;102173.09;6192157;28;20256;-53
2021/08/31 15:06:58;;;;;;;8.40;7.75;;;;;;;28.86;29.54;102168.09;6201948;28;20241;-53
2021/08/31 15:10:19;;;;;;;6.07;4.85;;;;;;;29.01;29.25;102165.38;6180708;28;20619;-47
2021/08/31 15:13:40;;;;;;;6.63;4.30;;;;;;;28.96;28.67;102164.81;6179517;28;20238;-48
2021/08/31 15:17:03;;;;;;;5.93;4.72;;;;;;;29.10;29.04;102166.59;6175955;28;20234;-52
2021/08/31 15:20:26;;;;;;;4.80;4.15;;;;;;;28.98;29.82;102154.84;6184186;28;20272;-50
2021/08/31 15:23:47;;;;;;;4.25;3.95;;;;;;;28.74;29.24;102163.56;6174734;28;20257;-54
2021/08/31 15:27:08;;;;;;;4.50;4.10;;;;;;;28.83;30.18;102154.91;6188399;28;20248;-49
2021/08/31 15:30:31;;;;;;;4.50;4.07;;;;;;;29.25;29.86;102144.13;6200754;28;20225;-52
2021/08/31 15:33:54;;;;;;;4.93;4.55;;;;;;;29.10;30.93;102148.69;6185306;28;20233;-49